createdAt,value
2018-12-27T00:02:06.807Z,80.68
2018-12-27T00:04:57.312Z,80.22
2018-12-27T00:07:47.644Z,79.98
2018-12-27T00:10:38.307Z,79.26
2018-12-27T00:13:29.003Z,79.15
2018-12-27T00:16:20.661Z,80.62
2018-12-27T00:19:11.119Z,80.12
2018-12-27T00:22:01.805Z,79.40
2018-12-27T00:24:52.194Z,79.03
2018-12-27T00:27:42.714Z,79.35
2018-12-27T00:30:33.601Z,80.59
2018-12-27T00:33:43.893Z,79.78
2018-12-27T00:39:37.217Z,78.61
2018-12-27T00:42:28.185Z,79.14
2018-12-27T00:45:19.802Z,80.09
2018-12-27T00:48:10.831Z,78.56
2018-12-27T00:51:01.286Z,79.10
2018-12-27T00:53:52.259Z,80.02
2018-12-27T00:56:42.778Z,78.54
2018-12-27T00:59:34.375Z,78.92
2018-12-27T01:02:24.908Z,78.54
2018-12-27T01:05:16.119Z,78.16
2018-12-27T01:08:07.568Z,79.82
2018-12-27T01:10:59.171Z,81.61
2018-12-27T01:13:50.262Z,80.79
2018-12-27T01:16:41.306Z,80.83
2018-12-27T01:19:32.007Z,80.74
2018-12-27T01:22:23.066Z,81.75
2018-12-27T01:25:13.662Z,81.68
2018-12-27T01:28:04.361Z,81.86
2018-12-27T01:30:54.721Z,81.53
2018-12-27T01:33:45.752Z,82.16
2018-12-27T01:36:36.498Z,82.97
2018-12-27T01:39:27.412Z,81.99
2018-12-27T01:42:18.059Z,81.62
2018-12-27T01:45:09.599Z,80.40
2018-12-27T01:48:00.122Z,79.48
2018-12-27T01:50:54.681Z,79.62
2018-12-27T01:53:45.701Z,80.14
2018-12-27T01:56:55.052Z,79.64
2018-12-27T01:59:45.474Z,80.08
2018-12-27T02:02:35.978Z,80.13
2018-12-27T02:05:26.762Z,80.33
2018-12-27T02:08:18.699Z,79.32
2018-12-27T02:11:28.114Z,79.87
2018-12-27T02:14:19.104Z,77.64
2018-12-27T02:17:28.385Z,79.93
2018-12-27T02:20:19.033Z,79.12
2018-12-27T02:23:09.525Z,78.38
2018-12-27T02:26:00.093Z,78.01
2018-12-27T02:28:50.643Z,78.66
2018-12-27T02:35:02.115Z,78.88
2018-12-27T02:37:52.647Z,78.89
2018-12-27T02:40:43.625Z,78.60
2018-12-27T02:43:34.207Z,77.23
2018-12-27T02:46:43.560Z,77.96
2018-12-27T02:49:47.260Z,77.92
2018-12-27T02:52:38.175Z,78.06
2018-12-27T02:55:59.152Z,78.25
2018-12-27T02:59:21.694Z,77.94
2018-12-27T03:02:19.313Z,78.21
2018-12-27T03:05:39.375Z,78.43
2018-12-27T03:08:48.879Z,78.20
2018-12-27T03:11:39.904Z,78.51
2018-12-27T03:14:37.154Z,79.20
2018-12-27T03:17:29.088Z,78.34
2018-12-27T03:20:19.824Z,78.60
2018-12-27T03:23:10.854Z,78.22
2018-12-27T03:29:03.637Z,78.61
2018-12-27T03:31:54.629Z,77.25
2018-12-27T03:35:23.148Z,78.31
2018-12-27T03:38:32.547Z,78.49
2018-12-27T03:41:22.972Z,78.97
2018-12-27T03:44:13.610Z,78.99
2018-12-27T03:50:54.513Z,77.98
2018-12-27T03:53:55.710Z,78.04
2018-12-27T03:56:46.663Z,77.80
2018-12-27T03:59:39.076Z,77.82
2018-12-27T04:02:33.132Z,77.10
2018-12-27T04:11:24.712Z,78.49
2018-12-27T04:14:16.299Z,78.12
2018-12-27T04:17:06.764Z,77.63
2018-12-27T04:23:22.812Z,78.13
2018-12-27T04:26:27.127Z,78.60
2018-12-27T04:29:17.859Z,78.67
2018-12-27T04:38:14.877Z,79.21
2018-12-27T04:41:05.557Z,79.39
2018-12-27T04:43:56.315Z,78.94
2018-12-27T04:46:47.099Z,79.42
2018-12-27T04:49:37.534Z,79.10
2018-12-27T04:55:33.437Z,79.78
2018-12-27T04:58:24.317Z,79.30
2018-12-27T05:01:14.748Z,79.01
2018-12-27T05:04:05.540Z,78.71
2018-12-27T05:06:55.910Z,80.04
2018-12-27T05:09:46.277Z,80.83
2018-12-27T05:12:36.753Z,79.31
2018-12-27T05:15:46.093Z,80.07
2018-12-27T05:18:37.071Z,79.39
2018-12-27T05:24:46.287Z,80.20
2018-12-27T05:27:37.706Z,79.67
2018-12-27T05:30:49.795Z,80.43
2018-12-27T05:33:40.580Z,79.21
2018-12-27T05:36:31.103Z,80.30
2018-12-27T05:39:21.397Z,79.72
2018-12-27T05:42:12.231Z,80.12
2018-12-27T05:45:02.645Z,79.96
2018-12-27T05:47:53.022Z,79.77
2018-12-27T05:50:43.311Z,78.83
2018-12-27T05:53:48.105Z,78.23
2018-12-27T05:56:50.292Z,78.71
2018-12-27T05:59:59.161Z,79.67
2018-12-27T06:06:07.442Z,79.10
2018-12-27T06:08:57.875Z,79.38
2018-12-27T06:11:51.144Z,78.97
2018-12-27T06:15:00.584Z,78.90
2018-12-27T06:17:51.543Z,78.49
2018-12-27T06:20:41.830Z,79.31
2018-12-27T06:23:32.690Z,78.31
2018-12-27T06:26:42.405Z,79.47
2018-12-27T06:29:32.885Z,79.75
2018-12-27T06:32:24.222Z,78.14
2018-12-27T06:35:14.630Z,79.01
2018-12-27T06:38:04.968Z,78.34
2018-12-27T06:44:21.808Z,77.91
2018-12-27T06:47:12.522Z,78.59
2018-12-27T06:50:04.352Z,79.14
2018-12-27T06:52:54.975Z,78.58
2018-12-27T06:59:34.653Z,76.26
2018-12-27T07:02:25.030Z,75.38
2018-12-27T07:09:01.964Z,75.63
2018-12-27T07:11:52.447Z,77.08
2018-12-27T07:14:42.816Z,77.48
2018-12-27T07:17:33.538Z,77.67
2018-12-27T07:20:23.995Z,79.09
2018-12-27T07:23:14.765Z,78.79
2018-12-27T07:26:06.228Z,79.78
2018-12-27T07:28:56.731Z,79.37
2018-12-27T07:35:09.875Z,74.41
2018-12-27T07:38:00.224Z,72.93
2018-12-27T07:40:59.477Z,71.73
2018-12-27T07:43:50.794Z,73.58
2018-12-27T07:46:41.291Z,72.79
2018-12-27T07:49:51.449Z,72.26
2018-12-27T07:52:41.792Z,72.59
2018-12-27T07:55:55.604Z,72.60
2018-12-27T07:58:46.332Z,71.47
2018-12-27T08:05:05.103Z,71.37
2018-12-27T08:08:14.969Z,69.71
2018-12-27T08:14:12.773Z,70.21
2018-12-27T08:17:04.539Z,68.90
2018-12-27T08:20:15.725Z,68.83
2018-12-27T08:23:26.482Z,68.33
2018-12-27T08:26:21.616Z,67.77
2018-12-27T08:29:23.488Z,68.07
2018-12-27T08:32:14.663Z,68.23
2018-12-27T08:37:46.230Z,66.94
2018-12-27T08:40:37.535Z,67.66
2018-12-27T08:43:46.604Z,67.55
2018-12-27T08:46:37.116Z,66.11
2018-12-27T08:49:31.799Z,68.40
2018-12-27T08:52:33.851Z,68.02
2018-12-27T08:58:26.951Z,66.81
2018-12-27T09:01:18.263Z,67.95
2018-12-27T09:04:09.060Z,68.48
2018-12-27T09:06:59.437Z,67.76
2018-12-27T09:09:50.462Z,66.51
2018-12-27T09:12:40.842Z,66.75
2018-12-27T09:15:31.183Z,67.14
2018-12-27T09:19:18.627Z,67.15
2018-12-27T09:22:08.918Z,66.53
2018-12-27T09:25:01.782Z,66.01
2018-12-27T09:27:59.693Z,66.28
2018-12-27T09:30:50.495Z,67.03
2018-12-27T09:37:22.447Z,65.63
2018-12-27T09:40:12.870Z,65.74
2018-12-27T09:43:03.298Z,66.06
2018-12-27T09:45:54.247Z,66.47
2018-12-27T09:48:45.407Z,66.10
2018-12-27T09:51:36.275Z,68.96
2018-12-27T09:54:27.016Z,67.02
2018-12-27T09:57:17.472Z,67.76
2018-12-27T10:00:08.618Z,67.20
2018-12-27T10:03:06.930Z,67.33
2018-12-27T10:05:57.797Z,68.10
2018-12-27T10:08:48.689Z,68.07
2018-12-27T10:15:23.253Z,69.02
2018-12-27T10:18:17.117Z,69.70
2018-12-27T10:24:10.152Z,68.25
2018-12-27T10:27:00.626Z,67.42
2018-12-27T10:29:51.004Z,66.74
2018-12-27T10:32:41.479Z,68.18
2018-12-27T10:35:32.342Z,67.99
2018-12-27T10:38:23.573Z,67.77
2018-12-27T10:41:14.326Z,66.36
2018-12-27T10:44:05.005Z,65.78
2018-12-27T10:46:55.427Z,66.70
2018-12-27T10:49:45.841Z,66.48
2018-12-27T10:52:37.006Z,64.90
2018-12-27T10:55:38.850Z,64.82
2018-12-27T10:58:29.116Z,65.53
2018-12-27T11:01:19.551Z,64.65
2018-12-27T11:04:09.810Z,64.65
2018-12-27T11:07:00.248Z,66.27
2018-12-27T11:09:50.844Z,66.12
2018-12-27T11:12:41.223Z,66.99
2018-12-27T11:15:32.034Z,67.68
2018-12-27T11:18:22.439Z,67.46
2018-12-27T11:21:13.130Z,66.29
2018-12-27T11:24:03.566Z,66.61
2018-12-27T11:26:54.532Z,67.70
2018-12-27T11:29:45.354Z,67.54
2018-12-27T11:32:35.758Z,67.92
2018-12-27T11:35:26.198Z,67.37
2018-12-27T11:38:16.654Z,68.58
2018-12-27T11:41:07.064Z,67.86
2018-12-27T11:43:57.857Z,68.17
2018-12-27T11:46:48.868Z,68.29
2018-12-27T11:49:39.241Z,68.44
2018-12-27T11:52:29.661Z,68.32
2018-12-27T11:55:19.983Z,68.63
2018-12-27T11:58:10.472Z,67.96
2018-12-27T12:01:00.766Z,68.43
2018-12-27T12:03:51.223Z,69.23
2018-12-27T12:06:41.653Z,69.27
2018-12-27T12:09:32.165Z,69.25
2018-12-27T12:12:22.836Z,69.67
2018-12-27T12:15:13.268Z,69.02
2018-12-27T12:18:04.056Z,69.29
2018-12-27T12:20:54.513Z,69.08
2018-12-27T12:23:45.316Z,69.25
2018-12-27T12:26:35.630Z,69.23
2018-12-27T12:29:25.985Z,69.33
2018-12-27T12:32:16.697Z,69.75
2018-12-27T12:35:07.308Z,69.52
2018-12-27T12:38:09.376Z,69.53
2018-12-27T12:40:59.897Z,69.05
2018-12-27T12:43:50.188Z,68.87
2018-12-27T12:46:40.584Z,68.20
2018-12-27T12:49:30.959Z,67.54
2018-12-27T12:52:21.916Z,66.21
2018-12-27T12:55:12.587Z,65.55
2018-12-27T12:58:03.101Z,65.33
2018-12-27T13:00:53.473Z,64.79
2018-12-27T13:07:27.475Z,63.75
2018-12-27T13:10:18.426Z,64.05
2018-12-27T13:13:10.696Z,64.77
2018-12-27T13:19:28.670Z,63.89
2018-12-27T13:22:21.041Z,61.50
2018-12-27T13:25:11.769Z,61.52
2018-12-27T13:28:02.450Z,59.41
2018-12-27T13:34:34.212Z,60.50
2018-12-27T13:37:24.461Z,60.98
2018-12-27T13:40:15.202Z,62.04
2018-12-27T13:43:05.741Z,62.63
2018-12-27T13:45:56.883Z,65.04
2018-12-27T13:48:48.344Z,68.13
2018-12-27T13:51:39.325Z,70.55
2018-12-27T13:54:29.724Z,72.05
2018-12-27T13:57:21.292Z,73.57
2018-12-27T14:00:11.550Z,73.45
2018-12-27T14:03:02.036Z,73.90
2018-12-27T14:05:52.330Z,74.78
2018-12-27T14:08:42.920Z,74.51
2018-12-27T14:11:33.559Z,75.10
2018-12-27T14:14:24.500Z,75.02
2018-12-27T14:17:15.192Z,75.28
2018-12-27T14:20:06.319Z,75.38
2018-12-27T14:22:57.099Z,75.77
2018-12-27T14:25:47.919Z,76.16
2018-12-27T14:28:38.330Z,76.02
2018-12-27T14:35:13.510Z,75.96
2018-12-27T14:37:44.836Z,76.06
2018-12-27T14:40:15.824Z,77.40
2018-12-27T14:42:46.923Z,76.91
2018-12-27T14:45:17.816Z,76.90
2018-12-27T14:47:49.245Z,76.84
2018-12-27T14:53:03.101Z,78.12
2018-12-27T14:55:53.509Z,77.72
2018-12-27T14:58:25.680Z,77.88
2018-12-27T15:01:16.745Z,76.76
2018-12-27T15:03:47.718Z,76.89
2018-12-27T15:06:18.696Z,77.01
2018-12-27T15:08:49.705Z,77.44
2018-12-27T15:11:21.121Z,77.65
2018-12-27T15:13:53.123Z,77.91
2018-12-27T15:16:24.088Z,78.36
2018-12-27T15:18:55.394Z,78.78
2018-12-27T15:21:26.364Z,79.19
2018-12-27T15:23:58.409Z,78.96
2018-12-27T15:26:49.631Z,79.38
2018-12-27T15:29:31.624Z,80.04
2018-12-27T15:32:02.571Z,79.17
2018-12-27T15:34:44.719Z,80.60
2018-12-27T15:37:16.104Z,81.20
2018-12-27T15:39:49.267Z,78.52
2018-12-27T15:42:20.361Z,79.07
2018-12-27T15:45:10.300Z,79.17
2018-12-27T15:47:41.553Z,79.82
2018-12-27T15:50:12.705Z,79.73
2018-12-27T15:52:43.759Z,80.44
2018-12-27T15:55:16.111Z,80.00
2018-12-27T15:57:47.788Z,79.50
2018-12-27T16:00:19.197Z,80.24
2018-12-27T16:02:50.557Z,79.23
2018-12-27T16:05:22.225Z,80.30
2018-12-27T16:07:53.454Z,79.21
2018-12-27T16:10:25.801Z,79.23
2018-12-27T16:12:57.846Z,79.40
2018-12-27T16:15:30.228Z,80.03
2018-12-27T16:18:01.520Z,80.12
2018-12-27T16:20:45.501Z,80.78
2018-12-27T16:23:19.615Z,80.78
2018-12-27T16:25:51.435Z,80.56
2018-12-27T16:28:22.426Z,81.23
2018-12-27T16:30:53.541Z,81.07
2018-12-27T16:33:43.871Z,80.42
2018-12-27T16:38:57.673Z,81.00
2018-12-27T16:44:54.027Z,81.04
2018-12-27T16:47:26.389Z,80.92
2018-12-27T16:49:57.398Z,80.97
2018-12-27T16:52:28.388Z,80.87
2018-12-27T16:55:00.254Z,80.76
2018-12-27T16:57:39.478Z,81.29
2018-12-27T17:00:29.867Z,81.15
2018-12-27T17:06:03.442Z,81.48
2018-12-27T17:08:34.685Z,81.45
2018-12-27T17:11:06.656Z,82.00
2018-12-27T17:13:38.098Z,81.75
2018-12-27T17:16:09.276Z,81.34
2018-12-27T17:18:40.591Z,80.82
2018-12-27T17:21:11.758Z,82.35
2018-12-27T17:26:46.275Z,81.94
2018-12-27T17:29:17.889Z,81.67
2018-12-27T17:31:49.895Z,81.86
2018-12-27T17:34:23.613Z,81.76
2018-12-27T17:36:55.097Z,81.45
2018-12-27T17:39:26.260Z,81.46
2018-12-27T17:42:16.753Z,82.40
2018-12-27T17:47:46.216Z,82.04
2018-12-27T17:50:17.396Z,82.28
2018-12-27T17:52:49.950Z,81.87
2018-12-27T17:55:21.077Z,83.17
2018-12-27T18:01:04.029Z,86.34
2018-12-27T18:07:18.932Z,82.84
2018-12-27T18:09:50.712Z,82.77
2018-12-27T18:12:42.178Z,82.60
2018-12-27T18:15:13.835Z,84.39
2018-12-27T18:18:03.765Z,84.17
2018-12-27T18:20:34.825Z,85.50
2018-12-27T18:23:06.351Z,82.98
2018-12-27T18:25:37.725Z,84.15
2018-12-27T18:28:08.649Z,83.81
2018-12-27T18:30:39.663Z,84.25
2018-12-27T18:33:10.676Z,84.00
2018-12-27T18:35:43.755Z,84.26
2018-12-27T18:41:05.515Z,84.51
2018-12-27T18:43:36.829Z,83.53
2018-12-27T18:46:07.828Z,83.22
2018-12-27T18:48:39.325Z,84.35
2018-12-27T18:54:45.057Z,83.54
2018-12-27T18:57:27.873Z,84.06
2018-12-27T19:00:27.183Z,83.58
2018-12-27T19:02:58.525Z,83.91
2018-12-27T19:05:31.315Z,83.52
2018-12-27T19:08:03.130Z,83.76
2018-12-27T19:10:35.325Z,82.74
2018-12-27T19:13:25.870Z,84.05
2018-12-27T19:16:00.839Z,82.95
2018-12-27T19:18:52.141Z,82.54
2018-12-27T19:21:57.649Z,83.31
2018-12-27T19:24:29.735Z,84.31
2018-12-27T19:27:22.433Z,83.18
2018-12-27T19:30:05.306Z,83.51
2018-12-27T19:32:37.805Z,83.59
2018-12-27T19:35:09.082Z,84.20
2018-12-27T19:41:08.937Z,85.82
2018-12-27T19:43:40.780Z,85.71
2018-12-27T19:46:12.952Z,86.73
2018-12-27T19:52:07.434Z,86.57
2018-12-27T19:57:44.511Z,86.65
2018-12-27T20:00:15.637Z,87.54
2018-12-27T20:05:53.030Z,87.16
2018-12-27T20:08:43.518Z,86.94
2018-12-27T20:11:53.782Z,87.08
2018-12-27T20:14:27.001Z,86.98
2018-12-27T20:16:58.696Z,87.73
2018-12-27T20:23:24.356Z,87.51
2018-12-27T20:26:10.276Z,85.74
2018-12-27T20:32:05.337Z,84.22
2018-12-27T20:34:37.000Z,86.25
2018-12-27T20:37:09.376Z,87.46
2018-12-27T20:39:41.524Z,87.53
2018-12-27T20:42:39.431Z,86.66
2018-12-27T20:45:10.753Z,86.67
2018-12-27T20:47:43.748Z,88.27
2018-12-27T20:53:47.918Z,90.49
2018-12-27T20:56:18.957Z,91.44
2018-12-27T20:59:28.352Z,91.18
2018-12-27T21:02:37.570Z,91.29
2018-12-27T21:08:37.378Z,93.86
2018-12-27T21:14:37.097Z,93.06
2018-12-27T21:17:31.151Z,93.13
2018-12-27T21:20:33.100Z,91.21
2018-12-27T21:23:25.480Z,92.43
2018-12-27T21:26:42.081Z,91.20
2018-12-27T21:29:32.557Z,92.06
2018-12-27T21:32:24.996Z,91.01
2018-12-27T21:35:23.188Z,91.16
2018-12-27T21:38:21.146Z,91.44
2018-12-27T21:41:13.311Z,90.51
2018-12-27T21:44:10.911Z,90.87
2018-12-27T21:50:10.706Z,91.44
2018-12-27T21:53:01.092Z,92.91
2018-12-27T21:55:51.868Z,91.36
2018-12-27T21:58:42.512Z,92.96
2018-12-27T22:05:01.562Z,95.05
2018-12-27T22:07:51.912Z,95.34
2018-12-27T22:10:44.759Z,95.03
2018-12-27T22:14:14.544Z,94.07
2018-12-27T22:16:52.368Z,92.60
2018-12-27T22:19:54.053Z,92.42
2018-12-27T22:22:48.744Z,91.24
2018-12-27T22:25:46.200Z,90.26
2018-12-27T22:28:57.530Z,90.36
2018-12-27T22:32:13.707Z,89.95
2018-12-27T22:34:58.242Z,91.97
2018-12-27T22:37:57.297Z,91.78
2018-12-27T22:43:57.433Z,91.08
2018-12-27T22:46:48.254Z,91.60
2018-12-27T22:49:39.160Z,92.59
2018-12-27T22:52:30.051Z,93.56
2018-12-27T22:55:37.985Z,93.47
2018-12-27T22:58:28.683Z,92.90
2018-12-27T23:01:19.643Z,92.59
2018-12-27T23:04:10.223Z,92.18
2018-12-27T23:07:00.551Z,93.71
2018-12-27T23:09:51.235Z,94.36
2018-12-27T23:12:42.931Z,93.58
2018-12-27T23:15:33.329Z,91.66
2018-12-27T23:18:24.210Z,91.54
2018-12-27T23:21:16.232Z,90.10
2018-12-27T23:24:07.978Z,90.23
2018-12-27T23:26:58.728Z,90.12
2018-12-27T23:30:02.335Z,89.85
2018-12-27T23:32:53.355Z,89.05
2018-12-27T23:35:44.021Z,89.60
2018-12-27T23:38:36.120Z,90.15
2018-12-27T23:41:27.479Z,87.93
2018-12-27T23:44:35.319Z,87.22
2018-12-27T23:47:21.586Z,89.65
2018-12-27T23:50:12.188Z,91.42
2018-12-27T23:53:03.057Z,92.39
2018-12-27T23:58:40.521Z,95.85
